createdAt,value
2022-08-01T00:00:01.413Z,1001.12
2022-08-01T00:05:01.724Z,1001.25
2022-08-01T00:10:01.763Z,1001.2
2022-08-01T00:15:01.577Z,1001.2
2022-08-01T00:20:01.998Z,1001.13
2022-08-01T00:25:02.101Z,1001.14
2022-08-01T00:30:11.030Z,1001.14
2022-08-01T00:35:01.478Z,1001.13
2022-08-01T00:40:01.515Z,1001.17
2022-08-01T00:45:01.317Z,1001.12
2022-08-01T00:50:01.769Z,1001.15
2022-08-01T00:55:02.065Z,1001.15
2022-08-01T01:00:01.438Z,1001.12
2022-08-01T01:05:01.990Z,1001.14
2022-08-01T01:10:01.197Z,1001.11
2022-08-01T01:15:01.965Z,1001.11
2022-08-01T01:20:01.171Z,1001.13
2022-08-01T01:25:01.828Z,1001.14
2022-08-01T01:30:01.672Z,1001.18
2022-08-01T01:35:02.326Z,1001.18
2022-08-01T01:40:02.324Z,1001.21
2022-08-01T01:45:01.568Z,1001.21
2022-08-01T01:50:01.450Z,1001.22
2022-08-01T01:55:01.855Z,1001.24
2022-08-01T02:00:01.948Z,1001.21
2022-08-01T02:05:02.109Z,1001.19
2022-08-01T02:10:02.149Z,1001.22
2022-08-01T02:15:01.401Z,1001.17
2022-08-01T02:20:01.660Z,1001.19
2022-08-01T02:25:01.285Z,1001.13
2022-08-01T02:30:02.255Z,1001.18
2022-08-01T02:35:01.276Z,1001.13
2022-08-01T02:40:01.557Z,1001.13
2022-08-01T02:45:01.869Z,1001.14
2022-08-01T02:50:01.695Z,1001.16
2022-08-01T02:55:01.636Z,1001.14
2022-08-01T03:00:02.093Z,1001.12
2022-08-01T03:05:01.262Z,1001.21
2022-08-01T03:10:01.409Z,1001.17
2022-08-01T03:15:01.993Z,1001.15
2022-08-01T03:20:02.058Z,1001.19
2022-08-01T03:25:01.944Z,1001.18
2022-08-01T03:30:02.251Z,1001.16
2022-08-01T03:35:01.571Z,1001.22
2022-08-01T03:40:02.130Z,1001.22
2022-08-01T03:45:01.365Z,1001.2
2022-08-01T03:50:01.569Z,1001.27
2022-08-01T03:55:01.981Z,1001.26
2022-08-01T04:00:01.907Z,1001.33
2022-08-01T04:05:02.115Z,1001.25
2022-08-01T04:10:01.979Z,1001.24
2022-08-01T04:15:01.394Z,1001.27
2022-08-01T04:20:01.836Z,1001.2
2022-08-01T04:25:01.473Z,1001.26
2022-08-01T04:30:01.421Z,1001.31
2022-08-01T04:35:01.978Z,1001.35
2022-08-01T04:40:01.424Z,1001.31
2022-08-01T04:45:01.682Z,1001.4
2022-08-01T04:50:02.024Z,1001.48
2022-08-01T04:55:01.519Z,1001.53
2022-08-01T05:00:01.921Z,1001.49
2022-08-01T05:05:01.237Z,1001.48
2022-08-01T05:10:01.894Z,1001.51
2022-08-01T05:15:01.254Z,1001.51
2022-08-01T05:20:01.391Z,1001.62
2022-08-01T05:25:01.929Z,1001.63
2022-08-01T05:30:02.162Z,1001.67
2022-08-01T05:35:02.097Z,1001.63
2022-08-01T05:40:01.465Z,1001.74
2022-08-01T05:45:01.285Z,1001.81
2022-08-01T05:50:01.623Z,1001.75
2022-08-01T05:55:01.667Z,1001.79
2022-08-01T06:00:01.637Z,1001.83
2022-08-01T06:05:01.637Z,1001.8
2022-08-01T06:10:01.519Z,1001.84
2022-08-01T06:15:01.964Z,1001.85
2022-08-01T06:20:02.353Z,1001.83
2022-08-01T06:25:02.075Z,1001.89
2022-08-01T06:30:02.055Z,1001.77
2022-08-01T06:35:01.412Z,1001.75
2022-08-01T06:40:02.169Z,1001.75
2022-08-01T06:45:02.153Z,1001.85
2022-08-01T06:50:02.098Z,1001.92
2022-08-01T06:55:01.631Z,1001.89
2022-08-01T07:00:02.188Z,1001.96
2022-08-01T07:05:02.170Z,1001.93
2022-08-01T07:10:01.229Z,1001.95
2022-08-01T07:15:01.860Z,1001.95
2022-08-01T07:20:01.958Z,1002.07
2022-08-01T07:25:01.632Z,1002
2022-08-01T07:30:01.586Z,1002.04
2022-08-01T07:35:02.281Z,1002.04
2022-08-01T07:40:01.700Z,1001.97
2022-08-01T07:45:01.381Z,1002.02
2022-08-01T07:50:01.602Z,1002.05
2022-08-01T07:55:01.519Z,1002.08
2022-08-01T08:00:01.538Z,1002.12
2022-08-01T08:05:01.683Z,1002.15
2022-08-01T08:10:01.276Z,1002.11
2022-08-01T08:15:01.280Z,1002.12
2022-08-01T08:20:01.180Z,1002.13
2022-08-01T08:25:01.821Z,1002.13
2022-08-01T08:30:02.006Z,1002.17
2022-08-01T08:35:01.589Z,1002.15
2022-08-01T08:40:01.807Z,1002.22
2022-08-01T08:45:02.899Z,1002.16
2022-08-01T08:50:01.753Z,1002.2
2022-08-01T08:55:01.756Z,1002.29
2022-08-01T09:00:02.014Z,1002.37
2022-08-01T09:05:02.113Z,1002.39
2022-08-01T09:10:01.237Z,1002.42
2022-08-01T09:15:01.497Z,1002.4
2022-08-01T09:20:02.127Z,1002.42
2022-08-01T09:25:01.562Z,1002.43
2022-08-01T09:30:02.278Z,1002.42
2022-08-01T09:35:01.708Z,1002.37
2022-08-01T09:40:01.587Z,1002.34
2022-08-01T09:45:01.573Z,1002.4
2022-08-01T09:50:01.705Z,1002.33
2022-08-01T09:55:01.604Z,1002.34
2022-08-01T10:00:02.235Z,1002.34
2022-08-01T10:05:03.755Z,1002.34
2022-08-01T10:10:01.609Z,1002.33
2022-08-01T10:15:02.064Z,1002.29
2022-08-01T10:20:01.411Z,1002.31
2022-08-01T10:25:01.234Z,1002.17
2022-08-01T10:30:07.458Z,1002.17
2022-08-01T10:35:06.875Z,1002.13
2022-08-01T10:40:27.247Z,1002.15
2022-08-01T10:45:01.790Z,1002.15
2022-08-01T10:50:01.917Z,1002.14
2022-08-01T10:55:01.549Z,1002.15
2022-08-01T11:00:01.966Z,1002.11
2022-08-01T11:05:01.134Z,1002.15
2022-08-01T11:10:01.181Z,1002.17
2022-08-01T11:15:02.829Z,1002.11
2022-08-01T11:20:02.090Z,1002.07
2022-08-01T11:25:02.142Z,1002.07
2022-08-01T11:30:01.988Z,1001.89
2022-08-01T11:35:02.052Z,1001.9
2022-08-01T11:40:01.318Z,1001.93
2022-08-01T11:45:02.223Z,1001.93
2022-08-01T11:50:02.007Z,1001.9
2022-08-01T11:55:01.783Z,1001.92
2022-08-01T12:00:03.507Z,1002
2022-08-01T12:05:01.292Z,1002.06
2022-08-01T12:10:01.717Z,1002.11
2022-08-01T12:15:01.481Z,1002.12
2022-08-01T12:20:02.068Z,1002.08
2022-08-01T12:25:01.740Z,1002.1
2022-08-01T12:30:02.338Z,1002.13
2022-08-01T12:35:01.549Z,1002.08
2022-08-01T12:40:01.690Z,1002.11
2022-08-01T12:45:01.617Z,1002.11
2022-08-01T12:50:01.804Z,1002.12
2022-08-01T12:55:01.936Z,1002.07
2022-08-01T13:00:01.257Z,1001.96
2022-08-01T13:05:01.975Z,1001.97
2022-08-01T13:10:01.774Z,1001.99
2022-08-01T13:15:02.061Z,1001.95
2022-08-01T13:20:01.205Z,1001.95
2022-08-01T13:25:01.261Z,1001.95
2022-08-01T13:30:01.270Z,1001.89
2022-08-01T13:35:01.426Z,1001.89
2022-08-01T13:40:01.505Z,1001.84
2022-08-01T13:45:02.983Z,1001.9
2022-08-01T13:50:01.402Z,1001.94
2022-08-01T13:55:01.760Z,1001.96
2022-08-01T14:00:02.407Z,1002
2022-08-01T14:05:01.889Z,1001.96
2022-08-01T14:10:17.552Z,1001.96
2022-08-01T14:15:01.654Z,1001.99
2022-08-01T14:20:02.031Z,1001.97
2022-08-01T14:25:03.635Z,1001.94
2022-08-01T14:30:03.464Z,1001.97
2022-08-01T14:35:01.895Z,1001.94
2022-08-01T14:40:02.075Z,1002.02
2022-08-01T14:45:01.395Z,1002.02
2022-08-01T14:50:01.960Z,1002.01
2022-08-01T14:55:01.863Z,1001.93
2022-08-01T15:00:01.904Z,1001.9
2022-08-01T15:05:01.879Z,1001.92
2022-08-01T15:10:01.147Z,1001.88
2022-08-01T15:15:01.395Z,1001.86
2022-08-01T15:20:01.993Z,1001.87
2022-08-01T15:25:01.436Z,1001.86
2022-08-01T15:30:01.451Z,1001.9
2022-08-01T15:35:01.575Z,1001.93
2022-08-01T15:40:01.860Z,1001.96
2022-08-01T15:45:01.983Z,1001.94
2022-08-01T15:50:01.570Z,1002
2022-08-01T15:55:01.389Z,1001.97
2022-08-01T16:00:01.696Z,1001.98
2022-08-01T16:05:01.451Z,1001.94
2022-08-01T16:10:01.424Z,1001.91
2022-08-01T16:15:01.431Z,1001.93
2022-08-01T16:20:01.366Z,1001.91
2022-08-01T16:25:01.560Z,1001.92
2022-08-01T16:30:01.563Z,1001.94
2022-08-01T16:35:01.523Z,1001.96
2022-08-01T16:40:01.646Z,1001.89
2022-08-01T16:45:01.549Z,1001.84
2022-08-01T16:50:01.212Z,1001.79
2022-08-01T16:55:01.506Z,1001.81
2022-08-01T17:00:01.787Z,1001.78
2022-08-01T17:05:01.150Z,1001.88
2022-08-01T17:10:01.945Z,1001.91
2022-08-01T17:15:01.422Z,1001.93
2022-08-01T17:20:01.860Z,1001.97
2022-08-01T17:25:01.203Z,1001.96
2022-08-01T17:30:01.981Z,1002.07
2022-08-01T17:35:01.562Z,1002.16
2022-08-01T17:40:06.374Z,1002.1
2022-08-01T17:45:01.532Z,1002.11
2022-08-01T17:50:02.080Z,1002.1
2022-08-01T17:55:01.555Z,1002.22
2022-08-01T18:00:01.211Z,1002.23
2022-08-01T18:05:01.187Z,1002.24
2022-08-01T18:10:01.821Z,1002.33
2022-08-01T18:15:01.721Z,1002.38
2022-08-01T18:20:01.422Z,1002.42
2022-08-01T18:25:03.940Z,1002.51
2022-08-01T18:30:01.445Z,1002.55
2022-08-01T18:35:04.424Z,1002.56
2022-08-01T18:40:01.640Z,1002.54
2022-08-01T18:45:02.039Z,1002.58
2022-08-01T18:50:01.601Z,1002.63
2022-08-01T18:55:01.919Z,1002.66
2022-08-01T19:00:01.301Z,1002.75
2022-08-01T19:05:01.878Z,1002.75
2022-08-01T19:10:01.955Z,1002.75
2022-08-01T19:15:04.865Z,1002.87
2022-08-01T19:20:01.764Z,1002.93
2022-08-01T19:25:01.772Z,1002.96
2022-08-01T19:30:01.746Z,1003.02
2022-08-01T19:35:01.458Z,1003.1
2022-08-01T19:40:01.883Z,1003.14
2022-08-01T19:45:01.856Z,1003.17
2022-08-01T19:50:01.607Z,1003.23
2022-08-01T19:55:01.379Z,1003.21
2022-08-01T20:00:01.778Z,1003.35
2022-08-01T20:05:02.006Z,1003.4
2022-08-01T20:10:01.176Z,1003.35
2022-08-01T20:15:01.410Z,1003.33
2022-08-01T20:20:02.068Z,1003.43
2022-08-01T20:25:02.116Z,1003.38
2022-08-01T20:30:02.027Z,1003.42
2022-08-01T20:35:02.125Z,1003.48
2022-08-01T20:40:01.564Z,1003.48
2022-08-01T20:45:01.364Z,1003.53
2022-08-01T20:50:01.793Z,1003.55
2022-08-01T20:55:02.095Z,1003.49
2022-08-01T21:00:01.232Z,1003.62
2022-08-01T21:05:01.672Z,1003.62
2022-08-01T21:10:01.789Z,1003.58
2022-08-01T21:15:01.644Z,1003.62
2022-08-01T21:20:01.253Z,1003.65
2022-08-01T21:25:01.365Z,1003.58
2022-08-01T21:30:01.656Z,1003.58
2022-08-01T21:35:01.941Z,1003.58
2022-08-01T21:40:09.532Z,1003.53
2022-08-01T21:45:01.787Z,1003.56
2022-08-01T21:50:01.292Z,1003.53
2022-08-01T21:55:01.317Z,1003.62
2022-08-01T22:00:01.599Z,1003.62
2022-08-01T22:05:01.419Z,1003.65
2022-08-01T22:10:01.788Z,1003.69
2022-08-01T22:15:01.646Z,1003.69
2022-08-01T22:20:02.111Z,1003.69
2022-08-01T22:25:01.999Z,1003.78
2022-08-01T22:30:01.543Z,1003.84
2022-08-01T22:35:01.249Z,1003.83
2022-08-01T22:40:01.841Z,1003.79
2022-08-01T22:45:01.900Z,1003.79
2022-08-01T22:50:01.167Z,1003.8
2022-08-01T22:55:01.291Z,1003.78
2022-08-01T23:00:01.711Z,1003.77
2022-08-01T23:05:01.700Z,1003.8
2022-08-01T23:10:01.355Z,1003.8
2022-08-01T23:15:01.845Z,1003.75
2022-08-01T23:20:01.386Z,1003.72
2022-08-01T23:25:03.916Z,1003.7
2022-08-01T23:30:01.367Z,1003.76
2022-08-01T23:35:01.969Z,1003.77
2022-08-01T23:40:01.960Z,1003.87
2022-08-01T23:45:02.047Z,1003.84
2022-08-01T23:50:01.495Z,1003.78
2022-08-01T23:55:03.473Z,1003.83
